sensor_id;sensor_type;location;lat;lon;timestamp;pressure;altitude;pressure_sealevel;temperature;humidity
73383;BME280;61600;48.126;11.542;2023-07-24T00:02:03;95070.53;;;23.43;49.20
73383;BME280;61600;48.126;11.542;2023-07-24T00:04:32;95071.63;;;23.38;49.83
73383;BME280;61600;48.126;11.542;2023-07-24T00:06:59;95066.03;;;23.34;50.13
73383;BME280;61600;48.126;11.542;2023-07-24T00:09:26;95072.72;;;23.30;50.09
73383;BME280;61600;48.126;11.542;2023-07-24T00:11:51;95062.88;;;23.32;49.96
73383;BME280;61600;48.126;11.542;2023-07-24T00:14:17;95056.00;;;23.23;49.86
73383;BME280;61600;48.126;11.542;2023-07-24T00:16:43;95052.06;;;23.24;49.99
73383;BME280;61600;48.126;11.542;2023-07-24T00:19:08;95047.28;;;23.21;50.15
73383;BME280;61600;48.126;11.542;2023-07-24T00:21:34;95042.59;;;23.28;49.72
73383;BME280;61600;48.126;11.542;2023-07-24T00:24:00;95048.56;;;23.30;49.67
73383;BME280;61600;48.126;11.542;2023-07-24T00:26:26;95036.50;;;23.16;50.08
73383;BME280;61600;48.126;11.542;2023-07-24T00:28:51;95034.88;;;23.11;49.84
73383;BME280;61600;48.126;11.542;2023-07-24T00:31:17;95031.28;;;23.07;50.10
73383;BME280;61600;48.126;11.542;2023-07-24T00:33:43;95030.06;;;23.08;50.06
73383;BME280;61600;48.126;11.542;2023-07-24T00:36:09;95026.09;;;23.06;50.32
73383;BME280;61600;48.126;11.542;2023-07-24T00:38:34;95023.72;;;23.04;50.24
73383;BME280;61600;48.126;11.542;2023-07-24T00:41:00;95019.69;;;23.02;50.20
73383;BME280;61600;48.126;11.542;2023-07-24T00:43:25;95011.81;;;23.04;50.05
73383;BME280;61600;48.126;11.542;2023-07-24T00:45:51;95012.56;;;23.01;50.41
73383;BME280;61600;48.126;11.542;2023-07-24T00:48:17;95009.00;;;23.00;50.38
73383;BME280;61600;48.126;11.542;2023-07-24T00:50:44;95012.56;;;23.01;50.42
73383;BME280;61600;48.126;11.542;2023-07-24T00:53:11;95005.78;;;22.98;50.19
73383;BME280;61600;48.126;11.542;2023-07-24T00:55:38;95010.53;;;22.98;50.30
73383;BME280;61600;48.126;11.542;2023-07-24T00:58:04;95016.47;;;22.96;50.95
73383;BME280;61600;48.126;11.542;2023-07-24T01:00:30;95007.34;;;22.96;50.67
73383;BME280;61600;48.126;11.542;2023-07-24T01:02:57;95010.94;;;22.96;50.69
73383;BME280;61600;48.126;11.542;2023-07-24T01:05:25;95007.00;;;22.97;50.51
73383;BME280;61600;48.126;11.542;2023-07-24T01:07:52;95007.75;;;22.98;50.44
73383;BME280;61600;48.126;11.542;2023-07-24T01:10:18;95002.25;;;23.01;50.36
73383;BME280;61600;48.126;11.542;2023-07-24T01:15:58;94999.50;;;23.05;50.47
73383;BME280;61600;48.126;11.542;2023-07-24T01:18:13;95004.69;;;23.06;50.11
73383;BME280;61600;48.126;11.542;2023-07-24T01:20:43;95005.50;;;23.07;50.39
73383;BME280;61600;48.126;11.542;2023-07-24T01:25:53;94989.66;;;23.07;50.04
73383;BME280;61600;48.126;11.542;2023-07-24T01:28:19;94990.34;;;22.97;50.59
73383;BME280;61600;48.126;11.542;2023-07-24T01:30:45;94990.31;;;22.94;50.44
73383;BME280;61600;48.126;11.542;2023-07-24T01:33:11;94987.22;;;23.02;50.33
73383;BME280;61600;48.126;11.542;2023-07-24T01:35:38;94973.28;;;22.99;50.56
73383;BME280;61600;48.126;11.542;2023-07-24T01:38:03;94973.78;;;23.04;50.03
73383;BME280;61600;48.126;11.542;2023-07-24T01:40:30;94954.78;;;23.10;49.92
73383;BME280;61600;48.126;11.542;2023-07-24T01:42:56;94950.06;;;23.14;49.82
73383;BME280;61600;48.126;11.542;2023-07-24T01:45:25;94961.91;;;23.07;49.82
73383;BME280;61600;48.126;11.542;2023-07-24T01:47:50;94951.56;;;23.04;49.25
73383;BME280;61600;48.126;11.542;2023-07-24T01:50:36;94954.81;;;23.13;49.22
73383;BME280;61600;48.126;11.542;2023-07-24T01:53:01;94964.97;;;22.99;49.60
73383;BME280;61600;48.126;11.542;2023-07-24T01:55:27;94983.59;;;22.98;50.06
73383;BME280;61600;48.126;11.542;2023-07-24T01:57:53;94989.94;;;22.99;49.93
73383;BME280;61600;48.126;11.542;2023-07-24T02:00:19;94976.53;;;23.04;50.19
73383;BME280;61600;48.126;11.542;2023-07-24T02:02:44;94977.38;;;23.12;49.64
73383;BME280;61600;48.126;11.542;2023-07-24T02:05:10;94965.47;;;23.08;49.95
73383;BME280;61600;48.126;11.542;2023-07-24T02:07:36;94985.97;;;22.96;50.44
73383;BME280;61600;48.126;11.542;2023-07-24T02:10:02;94984.63;;;22.83;50.66
73383;BME280;61600;48.126;11.542;2023-07-24T02:12:27;94993.03;;;22.90;50.98
73383;BME280;61600;48.126;11.542;2023-07-24T02:14:53;94987.41;;;22.83;50.71
73383;BME280;61600;48.126;11.542;2023-07-24T02:17:20;94992.19;;;22.86;50.83
73383;BME280;61600;48.126;11.542;2023-07-24T02:19:45;94991.44;;;22.89;51.23
73383;BME280;61600;48.126;11.542;2023-07-24T02:22:11;94989.53;;;22.97;50.89
73383;BME280;61600;48.126;11.542;2023-07-24T02:24:37;94988.81;;;23.03;50.94
73383;BME280;61600;48.126;11.542;2023-07-24T02:27:04;94991.66;;;23.10;50.42
73383;BME280;61600;48.126;11.542;2023-07-24T02:29:30;94993.75;;;23.20;50.15
73383;BME280;61600;48.126;11.542;2023-07-24T02:31:57;95006.34;;;23.11;50.91
73383;BME280;61600;48.126;11.542;2023-07-24T02:34:23;95053.47;;;23.07;50.24
73383;BME280;61600;48.126;11.542;2023-07-24T02:36:52;95089.78;;;22.39;52.60
73383;BME280;61600;48.126;11.542;2023-07-24T02:39:19;95076.09;;;22.23;53.13
73383;BME280;61600;48.126;11.542;2023-07-24T02:41:45;95055.69;;;22.65;52.01
73383;BME280;61600;48.126;11.542;2023-07-24T02:44:11;95049.69;;;22.63;51.66
73383;BME280;61600;48.126;11.542;2023-07-24T02:46:37;95043.00;;;22.64;51.74
73383;BME280;61600;48.126;11.542;2023-07-24T02:49:03;95037.28;;;22.79;51.37
73383;BME280;61600;48.126;11.542;2023-07-24T02:51:29;95027.84;;;22.87;51.29
73383;BME280;61600;48.126;11.542;2023-07-24T02:53:54;95011.00;;;23.03;51.11
73383;BME280;61600;48.126;11.542;2023-07-24T02:56:21;95009.03;;;23.04;51.08
73383;BME280;61600;48.126;11.542;2023-07-24T02:58:46;95017.06;;;23.16;50.82
73383;BME280;61600;48.126;11.542;2023-07-24T03:01:12;95041.25;;;23.15;50.69
73383;BME280;61600;48.126;11.542;2023-07-24T03:03:40;95098.41;;;22.86;51.49
73383;BME280;61600;48.126;11.542;2023-07-24T03:06:06;95163.50;;;22.70;52.26
73383;BME280;61600;48.126;11.542;2023-07-24T03:08:32;95216.84;;;22.37;56.60
73383;BME280;61600;48.126;11.542;2023-07-24T03:10:59;95247.13;;;22.04;61.65
73383;BME280;61600;48.126;11.542;2023-07-24T03:13:25;95289.53;;;21.50;63.97
73383;BME280;61600;48.126;11.542;2023-07-24T03:15:57;95259.91;;;20.97;65.08
73383;BME280;61600;48.126;11.542;2023-07-24T03:18:24;95235.53;;;20.52;67.47
73383;BME280;61600;48.126;11.542;2023-07-24T03:20:50;95207.47;;;20.34;70.34
73383;BME280;61600;48.126;11.542;2023-07-24T03:23:15;95219.50;;;20.26;70.92
73383;BME280;61600;48.126;11.542;2023-07-24T03:25:41;95193.03;;;20.40;71.52
73383;BME280;61600;48.126;11.542;2023-07-24T03:28:07;95175.22;;;20.38;71.24
73383;BME280;61600;48.126;11.542;2023-07-24T03:30:32;95147.22;;;20.39;71.35
73383;BME280;61600;48.126;11.542;2023-07-24T03:32:58;95123.53;;;20.38;73.42
73383;BME280;61600;48.126;11.542;2023-07-24T03:35:24;95099.53;;;20.42;72.75
73383;BME280;61600;48.126;11.542;2023-07-24T03:37:49;95085.16;;;20.53;73.09
73383;BME280;61600;48.126;11.542;2023-07-24T03:40:16;95047.41;;;20.60;73.84
73383;BME280;61600;48.126;11.542;2023-07-24T03:42:41;95050.88;;;20.38;72.96
73383;BME280;61600;48.126;11.542;2023-07-24T03:45:08;95005.19;;;20.40;72.78
73383;BME280;61600;48.126;11.542;2023-07-24T03:47:33;95005.25;;;20.44;71.92
73383;BME280;61600;48.126;11.542;2023-07-24T03:49:59;95007.44;;;20.54;71.95
73383;BME280;61600;48.126;11.542;2023-07-24T03:52:25;95019.72;;;20.57;72.63
73383;BME280;61600;48.126;11.542;2023-07-24T03:54:51;95016.00;;;20.68;71.71
73383;BME280;61600;48.126;11.542;2023-07-24T03:57:18;95027.91;;;20.72;72.84
73383;BME280;61600;48.126;11.542;2023-07-24T03:59:43;95011.69;;;20.71;71.83
73383;BME280;61600;48.126;11.542;2023-07-24T04:02:09;94996.41;;;20.77;72.19
73383;BME280;61600;48.126;11.542;2023-07-24T04:04:35;94994.09;;;20.79;71.83
73383;BME280;61600;48.126;11.542;2023-07-24T04:07:00;94986.97;;;20.78;71.68
73383;BME280;61600;48.126;11.542;2023-07-24T04:09:26;94986.16;;;20.77;72.25
73383;BME280;61600;48.126;11.542;2023-07-24T04:11:52;94983.47;;;20.81;72.58
73383;BME280;61600;48.126;11.542;2023-07-24T04:14:18;94976.47;;;20.87;72.00
73383;BME280;61600;48.126;11.542;2023-07-24T04:16:43;94978.94;;;20.92;73.01
73383;BME280;61600;48.126;11.542;2023-07-24T04:19:10;94991.16;;;20.91;72.66
73383;BME280;61600;48.126;11.542;2023-07-24T04:21:36;94984.03;;;20.90;71.92
73383;BME280;61600;48.126;11.542;2023-07-24T04:24:01;94982.25;;;21.01;71.61
73383;BME280;61600;48.126;11.542;2023-07-24T04:26:27;94999.31;;;20.84;71.87
73383;BME280;61600;48.126;11.542;2023-07-24T04:28:53;95022.38;;;20.72;71.54
73383;BME280;61600;48.126;11.542;2023-07-24T04:31:18;95060.53;;;20.82;71.84
73383;BME280;61600;48.126;11.542;2023-07-24T04:33:44;95058.19;;;20.84;71.70
73383;BME280;61600;48.126;11.542;2023-07-24T04:36:10;95050.22;;;20.83;71.24
73383;BME280;61600;48.126;11.542;2023-07-24T04:38:36;95055.47;;;20.88;71.40
73383;BME280;61600;48.126;11.542;2023-07-24T04:41:02;95053.66;;;20.96;71.51
73383;BME280;61600;48.126;11.542;2023-07-24T04:43:28;95034.66;;;20.94;71.12
73383;BME280;61600;48.126;11.542;2023-07-24T04:45:54;95015.75;;;20.96;70.71
73383;BME280;61600;48.126;11.542;2023-07-24T04:48:20;95024.34;;;20.91;71.27
73383;BME280;61600;48.126;11.542;2023-07-24T04:50:46;95019.25;;;20.93;70.59
73383;BME280;61600;48.126;11.542;2023-07-24T04:53:12;95025.56;;;20.93;70.73
73383;BME280;61600;48.126;11.542;2023-07-24T04:55:38;95029.59;;;20.96;70.45
73383;BME280;61600;48.126;11.542;2023-07-24T04:58:03;95038.91;;;20.88;70.80
73383;BME280;61600;48.126;11.542;2023-07-24T05:00:29;95031.91;;;20.94;69.71
73383;BME280;61600;48.126;11.542;2023-07-24T05:02:55;95034.38;;;20.99;69.86
73383;BME280;61600;48.126;11.542;2023-07-24T05:05:20;95040.63;;;21.15;70.01
73383;BME280;61600;48.126;11.542;2023-07-24T05:07:46;95045.31;;;20.54;70.67
73383;BME280;61600;48.126;11.542;2023-07-24T05:10:12;95041.25;;;21.09;70.82
73383;BME280;61600;48.126;11.542;2023-07-24T05:12:41;95048.13;;;21.15;69.90
73383;BME280;61600;48.126;11.542;2023-07-24T05:15:08;95047.41;;;21.18;68.94
73383;BME280;61600;48.126;11.542;2023-07-24T05:17:34;95038.25;;;21.14;68.92
73383;BME280;61600;48.126;11.542;2023-07-24T05:20:00;95023.16;;;21.11;68.55
73383;BME280;61600;48.126;11.542;2023-07-24T05:22:25;95006.84;;;21.06;68.50
73383;BME280;61600;48.126;11.542;2023-07-24T05:24:51;95003.78;;;21.11;68.37
73383;BME280;61600;48.126;11.542;2023-07-24T05:27:17;95002.28;;;21.14;68.45
73383;BME280;61600;48.126;11.542;2023-07-24T05:29:42;95005.41;;;21.12;67.86
73383;BME280;61600;48.126;11.542;2023-07-24T05:32:08;95000.50;;;21.06;67.79
73383;BME280;61600;48.126;11.542;2023-07-24T05:34:34;94990.84;;;21.15;67.97
73383;BME280;61600;48.126;11.542;2023-07-24T05:37:00;94990.91;;;21.19;67.11
73383;BME280;61600;48.126;11.542;2023-07-24T05:39:29;94986.19;;;21.42;66.93
73383;BME280;61600;48.126;11.542;2023-07-24T05:41:55;94999.50;;;21.59;66.42
73383;BME280;61600;48.126;11.542;2023-07-24T05:44:21;94987.31;;;21.64;66.00
73383;BME280;61600;48.126;11.542;2023-07-24T05:46:47;94987.03;;;21.72;65.57
73383;BME280;61600;48.126;11.542;2023-07-24T05:49:13;94974.81;;;21.73;65.46
73383;BME280;61600;48.126;11.542;2023-07-24T05:51:38;94974.75;;;21.96;65.39
73383;BME280;61600;48.126;11.542;2023-07-24T05:54:04;94975.16;;;21.95;64.92
73383;BME280;61600;48.126;11.542;2023-07-24T05:56:30;94979.66;;;22.06;64.38
73383;BME280;61600;48.126;11.542;2023-07-24T05:58:55;94979.16;;;22.27;63.50
73383;BME280;61600;48.126;11.542;2023-07-24T06:01:22;94972.53;;;22.35;63.34
73383;BME280;61600;48.126;11.542;2023-07-24T06:03:48;94968.75;;;22.50;63.00
73383;BME280;61600;48.126;11.542;2023-07-24T06:06:13;94945.66;;;22.69;62.59
73383;BME280;61600;48.126;11.542;2023-07-24T06:08:39;94936.38;;;22.91;62.30
73383;BME280;61600;48.126;11.542;2023-07-24T06:11:05;94938.69;;;22.85;61.96
73383;BME280;61600;48.126;11.542;2023-07-24T06:13:31;94932.31;;;22.81;61.47
73383;BME280;61600;48.126;11.542;2023-07-24T06:15:57;94932.13;;;23.01;61.01
73383;BME280;61600;48.126;11.542;2023-07-24T06:18:22;94941.22;;;23.01;60.90
73383;BME280;61600;48.126;11.542;2023-07-24T06:20:53;94955.13;;;23.05;60.49
73383;BME280;61600;48.126;11.542;2023-07-24T06:23:19;94956.59;;;22.92;59.84
73383;BME280;61600;48.126;11.542;2023-07-24T06:25:45;94944.69;;;23.31;60.00
73383;BME280;61600;48.126;11.542;2023-07-24T06:28:11;94947.19;;;23.44;59.54
73383;BME280;61600;48.126;11.542;2023-07-24T06:30:42;94933.78;;;23.53;59.35
73383;BME280;61600;48.126;11.542;2023-07-24T06:33:08;94925.91;;;23.62;58.96
73383;BME280;61600;48.126;11.542;2023-07-24T06:35:34;94912.06;;;23.69;57.51
73383;BME280;61600;48.126;11.542;2023-07-24T06:38:00;94905.41;;;23.80;57.34
73383;BME280;61600;48.126;11.542;2023-07-24T06:40:26;94907.47;;;23.94;56.81
73383;BME280;61600;48.126;11.542;2023-07-24T06:42:52;94911.97;;;24.13;56.83
73383;BME280;61600;48.126;11.542;2023-07-24T06:45:18;94919.84;;;24.11;56.49
73383;BME280;61600;48.126;11.542;2023-07-24T06:47:45;94924.28;;;24.15;55.86
73383;BME280;61600;48.126;11.542;2023-07-24T06:50:10;94927.81;;;24.12;56.05
73383;BME280;61600;48.126;11.542;2023-07-24T06:52:36;94934.97;;;24.10;55.21
73383;BME280;61600;48.126;11.542;2023-07-24T06:55:02;94940.72;;;24.45;54.23
73383;BME280;61600;48.126;11.542;2023-07-24T06:57:28;94924.53;;;24.75;54.98
73383;BME280;61600;48.126;11.542;2023-07-24T06:59:53;94921.38;;;24.80;54.12
73383;BME280;61600;48.126;11.542;2023-07-24T07:02:19;94923.78;;;24.89;53.43
73383;BME280;61600;48.126;11.542;2023-07-24T07:04:45;94923.03;;;25.03;52.29
73383;BME280;61600;48.126;11.542;2023-07-24T07:07:11;94927.41;;;25.11;52.14
73383;BME280;61600;48.126;11.542;2023-07-24T07:09:40;94938.16;;;25.30;51.61
73383;BME280;61600;48.126;11.542;2023-07-24T07:12:06;94952.09;;;25.41;50.96
73383;BME280;61600;48.126;11.542;2023-07-24T07:14:32;94975.22;;;25.55;50.40
73383;BME280;61600;48.126;11.542;2023-07-24T07:16:57;94985.56;;;25.58;50.53
73383;BME280;61600;48.126;11.542;2023-07-24T07:19:23;95007.06;;;25.72;50.93
73383;BME280;61600;48.126;11.542;2023-07-24T07:21:49;95004.69;;;25.74;50.75
73383;BME280;61600;48.126;11.542;2023-07-24T07:24:15;95007.44;;;25.56;50.03
73383;BME280;61600;48.126;11.542;2023-07-24T07:26:41;95026.16;;;25.52;50.93
73383;BME280;61600;48.126;11.542;2023-07-24T07:29:06;95071.13;;;25.51;50.21
73383;BME280;61600;48.126;11.542;2023-07-24T07:31:32;95128.25;;;25.20;51.70
73383;BME280;61600;48.126;11.542;2023-07-24T07:33:58;95132.53;;;25.00;51.78
73383;BME280;61600;48.126;11.542;2023-07-24T07:36:24;95155.19;;;24.40;52.00
73383;BME280;61600;48.126;11.542;2023-07-24T07:38:50;95148.88;;;24.03;55.68
73383;BME280;61600;48.126;11.542;2023-07-24T07:41:15;95141.78;;;23.68;60.58
73383;BME280;61600;48.126;11.542;2023-07-24T07:43:41;95147.19;;;22.91;62.57
73383;BME280;61600;48.126;11.542;2023-07-24T07:46:07;95161.25;;;22.53;63.21
73383;BME280;61600;48.126;11.542;2023-07-24T07:48:33;95158.44;;;22.23;66.24
73383;BME280;61600;48.126;11.542;2023-07-24T07:50:58;95159.81;;;22.13;66.83
73383;BME280;61600;48.126;11.542;2023-07-24T07:53:24;95155.38;;;22.31;67.21
73383;BME280;61600;48.126;11.542;2023-07-24T07:55:57;95146.31;;;22.34;67.18
73383;BME280;61600;48.126;11.542;2023-07-24T07:58:24;95153.25;;;22.21;67.64
73383;BME280;61600;48.126;11.542;2023-07-24T08:00:49;95148.38;;;21.92;67.98
73383;BME280;61600;48.126;11.542;2023-07-24T08:03:15;95136.31;;;22.04;67.50
73383;BME280;61600;48.126;11.542;2023-07-24T08:05:41;95146.22;;;22.27;66.79
73383;BME280;61600;48.126;11.542;2023-07-24T08:08:07;95146.00;;;22.39;67.61
73383;BME280;61600;48.126;11.542;2023-07-24T08:10:32;95143.34;;;22.47;66.26
73383;BME280;61600;48.126;11.542;2023-07-24T08:12:58;95136.91;;;22.39;66.33
73383;BME280;61600;48.126;11.542;2023-07-24T08:15:24;95129.28;;;22.59;65.86
73383;BME280;61600;48.126;11.542;2023-07-24T08:17:50;95123.78;;;22.62;65.37
73383;BME280;61600;48.126;11.542;2023-07-24T08:20:16;95122.03;;;22.51;65.77
73383;BME280;61600;48.126;11.542;2023-07-24T08:22:41;95103.81;;;22.76;65.17
73383;BME280;61600;48.126;11.542;2023-07-24T08:25:07;95112.75;;;22.66;65.43
73383;BME280;61600;48.126;11.542;2023-07-24T08:27:33;95096.56;;;22.68;65.04
73383;BME280;61600;48.126;11.542;2023-07-24T08:29:59;95089.19;;;22.79;64.65
73383;BME280;61600;48.126;11.542;2023-07-24T08:32:25;95087.75;;;22.92;63.36
73383;BME280;61600;48.126;11.542;2023-07-24T08:34:51;95061.28;;;22.98;63.17
73383;BME280;61600;48.126;11.542;2023-07-24T08:37:16;95040.50;;;23.18;63.24
73383;BME280;61600;48.126;11.542;2023-07-24T08:39:42;95052.91;;;23.28;62.66
73383;BME280;61600;48.126;11.542;2023-07-24T08:42:12;95034.63;;;23.27;60.39
73383;BME280;61600;48.126;11.542;2023-07-24T08:44:38;95019.88;;;23.56;60.29
73383;BME280;61600;48.126;11.542;2023-07-24T08:47:04;95008.16;;;23.77;60.38
73383;BME280;61600;48.126;11.542;2023-07-24T08:49:32;94990.41;;;23.92;61.60
73383;BME280;61600;48.126;11.542;2023-07-24T08:51:59;94986.53;;;24.07;60.67
73383;BME280;61600;48.126;11.542;2023-07-24T08:54:26;94981.47;;;24.16;60.07
73383;BME280;61600;48.126;11.542;2023-07-24T08:56:52;94988.13;;;24.08;60.05
73383;BME280;61600;48.126;11.542;2023-07-24T08:59:19;94998.25;;;23.79;59.74
73383;BME280;61600;48.126;11.542;2023-07-24T09:01:45;95002.19;;;23.75;60.43
73383;BME280;61600;48.126;11.542;2023-07-24T09:04:11;95001.25;;;23.57;60.93
73383;BME280;61600;48.126;11.542;2023-07-24T09:06:37;95015.38;;;23.41;60.44
73383;BME280;61600;48.126;11.542;2023-07-24T09:09:11;95015.88;;;23.50;59.43
73383;BME280;61600;48.126;11.542;2023-07-24T09:11:46;95003.59;;;23.55;59.85
73383;BME280;61600;48.126;11.542;2023-07-24T09:14:23;94995.31;;;23.58;60.12
73383;BME280;61600;48.126;11.542;2023-07-24T09:16:49;95005.59;;;23.58;60.33
73383;BME280;61600;48.126;11.542;2023-07-24T09:19:19;95007.66;;;23.64;60.05
73383;BME280;61600;48.126;11.542;2023-07-24T09:21:45;95011.25;;;23.68;60.47
73383;BME280;61600;48.126;11.542;2023-07-24T09:24:13;95001.81;;;23.76;59.64
73383;BME280;61600;48.126;11.542;2023-07-24T09:26:50;94981.25;;;23.88;59.07
73383;BME280;61600;48.126;11.542;2023-07-24T09:29:16;94983.81;;;24.14;57.60
73383;BME280;61600;48.126;11.542;2023-07-24T09:31:42;94976.81;;;24.34;57.23
73383;BME280;61600;48.126;11.542;2023-07-24T09:34:16;94966.53;;;24.46;56.55
73383;BME280;61600;48.126;11.542;2023-07-24T09:36:42;94960.66;;;24.65;55.90
73383;BME280;61600;48.126;11.542;2023-07-24T09:39:08;94954.75;;;24.80;54.24
73383;BME280;61600;48.126;11.542;2023-07-24T09:41:36;94945.19;;;24.78;54.17
73383;BME280;61600;48.126;11.542;2023-07-24T09:44:02;94944.75;;;24.58;52.36
73383;BME280;61600;48.126;11.542;2023-07-24T09:46:28;94955.22;;;25.00;52.04
73383;BME280;61600;48.126;11.542;2023-07-24T09:48:56;94951.69;;;25.39;52.34
73383;BME280;61600;48.126;11.542;2023-07-24T09:51:23;94943.34;;;25.31;50.68
73383;BME280;61600;48.126;11.542;2023-07-24T09:54:10;94927.84;;;25.76;50.25
73383;BME280;61600;48.126;11.542;2023-07-24T09:56:40;94924.25;;;25.79;48.17
73383;BME280;61600;48.126;11.542;2023-07-24T09:59:09;94923.38;;;26.14;48.05
73383;BME280;61600;48.126;11.542;2023-07-24T10:01:36;94923.78;;;26.30;47.12
73383;BME280;61600;48.126;11.542;2023-07-24T10:04:03;94930.13;;;26.42;46.26
73383;BME280;61600;48.126;11.542;2023-07-24T10:06:52;94922.56;;;26.39;46.52
73383;BME280;61600;48.126;11.542;2023-07-24T10:09:19;94912.97;;;26.40;46.38
73383;BME280;61600;48.126;11.542;2023-07-24T10:11:47;94902.97;;;26.53;45.48
73383;BME280;61600;48.126;11.542;2023-07-24T10:14:13;94893.38;;;26.57;45.56
73383;BME280;61600;48.126;11.542;2023-07-24T10:16:39;94896.03;;;26.89;45.07
73383;BME280;61600;48.126;11.542;2023-07-24T10:19:15;94884.41;;;27.01;44.82
73383;BME280;61600;48.126;11.542;2023-07-24T10:21:48;94883.19;;;26.99;44.40
73383;BME280;61600;48.126;11.542;2023-07-24T10:24:15;94888.81;;;26.92;42.75
73383;BME280;61600;48.126;11.542;2023-07-24T10:26:41;94883.47;;;27.18;42.85
73383;BME280;61600;48.126;11.542;2023-07-24T10:29:09;94887.28;;;27.39;42.71
73383;BME280;61600;48.126;11.542;2023-07-24T10:31:34;94894.28;;;27.68;42.65
73383;BME280;61600;48.126;11.542;2023-07-24T10:34:04;94901.38;;;27.76;41.99
73383;BME280;61600;48.126;11.542;2023-07-24T10:36:34;94900.53;;;27.83;41.87
73383;BME280;61600;48.126;11.542;2023-07-24T10:39:01;94906.56;;;28.18;41.13
73383;BME280;61600;48.126;11.542;2023-07-24T10:41:37;94900.50;;;28.23;41.71
73383;BME280;61600;48.126;11.542;2023-07-24T10:44:03;94900.16;;;28.21;41.22
73383;BME280;61600;48.126;11.542;2023-07-24T10:46:39;94893.50;;;28.42;41.23
73383;BME280;61600;48.126;11.542;2023-07-24T10:49:06;94885.19;;;28.35;41.46
73383;BME280;61600;48.126;11.542;2023-07-24T10:51:33;94886.44;;;28.31;40.80
73383;BME280;61600;48.126;11.542;2023-07-24T10:54:01;94879.34;;;28.22;40.71
73383;BME280;61600;48.126;11.542;2023-07-24T10:56:27;94880.88;;;28.27;38.92
73383;BME280;61600;48.126;11.542;2023-07-24T10:58:53;94870.94;;;28.56;41.16
73383;BME280;61600;48.126;11.542;2023-07-24T11:01:19;94862.69;;;29.03;40.82
73383;BME280;61600;48.126;11.542;2023-07-24T11:03:45;94858.59;;;29.38;40.94
73383;BME280;61600;48.126;11.542;2023-07-24T11:06:13;94847.34;;;29.64;39.62
73383;BME280;61600;48.126;11.542;2023-07-24T11:08:39;94840.56;;;29.85;38.67
73383;BME280;61600;48.126;11.542;2023-07-24T11:11:07;94839.41;;;29.83;37.99
73383;BME280;61600;48.126;11.542;2023-07-24T11:13:33;94838.97;;;29.84;37.60
73383;BME280;61600;48.126;11.542;2023-07-24T11:16:07;94833.63;;;29.47;36.84
73383;BME280;61600;48.126;11.542;2023-07-24T11:18:44;94836.19;;;29.61;36.63
73383;BME280;61600;48.126;11.542;2023-07-24T11:21:12;94815.94;;;29.73;37.04
73383;BME280;61600;48.126;11.542;2023-07-24T11:23:37;94801.91;;;29.96;36.97
73383;BME280;61600;48.126;11.542;2023-07-24T11:26:06;94790.53;;;30.03;36.47
73383;BME280;61600;48.126;11.542;2023-07-24T11:28:39;94787.38;;;30.21;37.30
73383;BME280;61600;48.126;11.542;2023-07-24T11:31:04;94791.28;;;30.47;36.16
73383;BME280;61600;48.126;11.542;2023-07-24T11:33:30;94805.19;;;30.70;35.93
73383;BME280;61600;48.126;11.542;2023-07-24T11:35:56;94794.91;;;30.99;35.83
73383;BME280;61600;48.126;11.542;2023-07-24T11:38:22;94794.84;;;31.03;34.60
73383;BME280;61600;48.126;11.542;2023-07-24T11:40:48;94775.16;;;31.19;36.45
73383;BME280;61600;48.126;11.542;2023-07-24T11:43:22;94779.28;;;31.31;35.97
73383;BME280;61600;48.126;11.542;2023-07-24T11:45:51;94780.94;;;31.28;34.63
73383;BME280;61600;48.126;11.542;2023-07-24T11:48:22;94778.66;;;31.07;35.32
73383;BME280;61600;48.126;11.542;2023-07-24T11:50:53;94768.88;;;30.95;35.91
73383;BME280;61600;48.126;11.542;2023-07-24T11:53:32;94767.00;;;30.56;35.50
73383;BME280;61600;48.126;11.542;2023-07-24T11:56:17;94771.47;;;30.54;35.95
73383;BME280;61600;48.126;11.542;2023-07-24T11:58:45;94782.31;;;30.12;35.63
73383;BME280;61600;48.126;11.542;2023-07-24T12:01:14;94786.91;;;29.83;36.71
73383;BME280;61600;48.126;11.542;2023-07-24T12:03:41;94788.88;;;29.63;36.78
73383;BME280;61600;48.126;11.542;2023-07-24T12:06:15;94805.31;;;29.41;36.60
73383;BME280;61600;48.126;11.542;2023-07-24T12:08:41;94789.50;;;29.51;36.49
73383;BME280;61600;48.126;11.542;2023-07-24T12:11:16;94782.19;;;29.57;37.63
73383;BME280;61600;48.126;11.542;2023-07-24T12:13:44;94803.28;;;29.42;37.51
73383;BME280;61600;48.126;11.542;2023-07-24T12:16:12;94819.31;;;29.14;37.96
73383;BME280;61600;48.126;11.542;2023-07-24T12:18:38;94883.16;;;28.39;40.04
73383;BME280;61600;48.126;11.542;2023-07-24T12:21:04;94914.94;;;28.18;40.79
73383;BME280;61600;48.126;11.542;2023-07-24T12:23:29;94945.53;;;27.47;42.15
73383;BME280;61600;48.126;11.542;2023-07-24T12:25:55;94968.13;;;27.05;44.25
73383;BME280;61600;48.126;11.542;2023-07-24T12:28:21;94953.09;;;26.85;45.66
73383;BME280;61600;48.126;11.542;2023-07-24T12:30:47;94955.53;;;26.65;48.73
73383;BME280;61600;48.126;11.542;2023-07-24T12:33:14;94941.75;;;25.94;51.70
73383;BME280;61600;48.126;11.542;2023-07-24T12:35:40;94920.69;;;25.75;53.11
73383;BME280;61600;48.126;11.542;2023-07-24T12:38:06;94913.13;;;25.55;53.21
73383;BME280;61600;48.126;11.542;2023-07-24T12:40:32;94910.75;;;25.74;52.88
73383;BME280;61600;48.126;11.542;2023-07-24T12:42:57;94909.47;;;25.97;52.32
73383;BME280;61600;48.126;11.542;2023-07-24T12:45:23;94914.28;;;26.00;51.46
73383;BME280;61600;48.126;11.542;2023-07-24T12:47:49;94916.63;;;26.08;52.54
73383;BME280;61600;48.126;11.542;2023-07-24T12:50:14;94929.00;;;26.00;51.81
73383;BME280;61600;48.126;11.542;2023-07-24T12:52:40;94932.22;;;25.46;53.28
73383;BME280;61600;48.126;11.542;2023-07-24T12:55:09;94939.75;;;25.49;53.39